Time;durP1;ratioP1;P1;durP2;ratioP2;P2;SDS_P1;SDS_P2;PMS_P1;PMS_P2;Temp;Humidity;BMP_temperature;BMP_pressure;BME280_temperature;BME280_humidity;BME280_pressure;Samples;Min_cycle;Max_cycle;Signal;HPM_P1;HPM_P2
2023/03/20 00:00:17;;;;;;;13.17;8.13;;;9.50;99.90;;;;;;5011000;28;20455;-73
2023/03/20 00:02:44;;;;;;;7.67;6.87;;;9.50;99.90;;;;;;5007353;28;20465;-73
2023/03/20 00:05:20;;;;;;;7.07;6.43;;;9.50;99.90;;;;;;5011263;28;20475;-73
2023/03/20 00:07:48;;;;;;;8.87;6.50;;;9.50;99.90;;;;;;5010656;28;20449;-73
2023/03/20 00:10:15;;;;;;;9.17;7.17;;;9.50;99.90;;;;;;5011105;28;20469;-73
2023/03/20 00:12:43;;;;;;;11.03;7.63;;;9.40;99.90;;;;;;5010673;28;20464;-74
2023/03/20 00:15:27;;;;;;;9.67;7.10;;;9.40;99.90;;;;;;5010418;28;20481;-74
2023/03/20 00:17:54;;;;;;;8.53;6.93;;;9.40;99.90;;;;;;5011193;28;20466;-74
2023/03/20 00:20:22;;;;;;;7.27;6.57;;;9.40;99.90;;;;;;5012029;28;20514;-74
2023/03/20 00:22:49;;;;;;;8.80;6.60;;;9.40;99.90;;;;;;5010595;28;20464;-74
2023/03/20 00:25:18;;;;;;;9.07;6.30;;;9.40;99.90;;;;;;5011009;28;20478;-73
2023/03/20 00:27:45;;;;;;;7.43;6.20;;;9.40;99.90;;;;;;5013085;28;20816;-73
2023/03/20 00:30:21;;;;;;;10.07;6.20;;;9.40;99.90;;;;;;5014315;28;20459;-73
2023/03/20 00:32:48;;;;;;;7.33;6.60;;;9.40;99.90;;;;;;5012604;28;20531;-73
2023/03/20 00:35:18;;;;;;;7.87;6.90;;;9.30;99.90;;;;;;5014319;28;20469;-73
2023/03/20 00:37:45;;;;;;;11.43;6.70;;;9.30;99.90;;;;;;5013978;28;20967;-73
2023/03/20 00:40:13;;;;;;;11.70;6.67;;;9.30;99.90;;;;;;5014235;28;20498;-73
2023/03/20 00:42:40;;;;;;;9.60;6.60;;;9.30;99.90;;;;;;5014171;28;20466;-74
2023/03/20 00:45:13;;;;;;;6.70;5.97;;;9.30;99.90;;;;;;5014186;28;20491;-73
2023/03/20 00:47:41;;;;;;;8.17;6.30;;;9.20;99.90;;;;;;5013990;28;20952;-73
2023/03/20 00:50:15;;;;;;;7.33;6.60;;;9.20;99.90;;;;;;5014345;28;20952;-73
2023/03/20 00:52:43;;;;;;;9.50;6.17;;;9.20;99.90;;;;;;5020142;28;20462;-73
2023/03/20 00:55:10;;;;;;;7.27;6.53;;;9.10;99.90;;;;;;5013699;28;21033;-73
2023/03/20 00:57:41;;;;;;;11.30;6.77;;;9.10;99.90;;;;;;5013766;28;20463;-73
2023/03/20 01:00:18;;;;;;;7.37;6.67;;;9.10;99.90;;;;;;5013692;28;20863;-73
2023/03/20 01:02:46;;;;;;;7.83;6.23;;;9.20;99.90;;;;;;5009630;28;20506;-73
2023/03/20 01:05:13;;;;;;;6.60;6.00;;;9.10;99.90;;;;;;5013220;28;20492;-74
2023/03/20 01:07:40;;;;;;;8.03;6.57;;;9.10;99.90;;;;;;5013533;28;20461;-73
2023/03/20 01:10:07;;;;;;;8.53;6.90;;;9.10;99.90;;;;;;5013697;28;20459;-73
2023/03/20 01:12:34;;;;;;;8.50;6.67;;;9.10;99.90;;;;;;5013166;28;20521;-73
2023/03/20 01:15:01;;;;;;;7.97;6.50;;;9.20;99.90;;;;;;5013212;28;21028;-73
2023/03/20 01:17:28;;;;;;;8.57;6.07;;;9.10;99.90;;;;;;5013497;28;20953;-73
2023/03/20 01:19:56;;;;;;;8.60;6.67;;;9.10;99.90;;;;;;5014506;28;20550;-73
2023/03/20 01:22:23;;;;;;;6.33;5.73;;;9.10;99.90;;;;;;5013194;28;20820;-73
2023/03/20 01:24:49;;;;;;;12.80;7.53;;;9.10;99.90;;;;;;5013206;28;20472;-73
2023/03/20 01:27:18;;;;;;;9.87;6.37;;;9.10;99.90;;;;;;5012152;28;20455;-73
2023/03/20 01:29:45;;;;;;;7.60;6.87;;;9.10;99.90;;;;;;5013183;28;20452;-73
2023/03/20 01:32:14;;;;;;;7.97;6.13;;;9.10;99.90;;;;;;5013325;28;20450;-73
2023/03/20 01:34:40;;;;;;;10.60;7.10;;;9.10;99.90;;;;;;5012966;28;20500;-73
2023/03/20 01:37:16;;;;;;;10.83;6.30;;;9.00;99.90;;;;;;5013249;28;20889;-73
2023/03/20 01:39:43;;;;;;;8.97;7.40;;;9.00;99.90;;;;;;5013206;28;20455;-73
2023/03/20 01:42:15;;;;;;;8.40;6.83;;;9.00;99.90;;;;;;5012331;28;20459;-73
2023/03/20 01:44:42;;;;;;;8.33;6.53;;;9.00;99.90;;;;;;5012803;28;20479;-73
2023/03/20 01:47:17;;;;;;;8.70;6.30;;;9.00;99.90;;;;;;5011342;28;20451;-73
2023/03/20 01:50:21;;;;;;;6.90;6.30;;;9.00;99.90;;;;;;5012480;28;20466;-73
2023/03/20 01:52:51;;;;;;;12.80;7.80;;;8.90;99.90;;;;;;5018627;28;20872;-73
2023/03/20 01:55:20;;;;;;;8.47;6.80;;;8.90;99.90;;;;;;5012479;28;20552;-73
2023/03/20 01:57:46;;;;;;;7.50;6.80;;;8.90;99.90;;;;;;5012783;28;20451;-73
2023/03/20 02:00:16;;;;;;;9.80;6.70;;;8.80;99.90;;;;;;5012468;28;20528;-73
2023/03/20 02:02:46;;;;;;;8.50;7.40;;;8.80;99.90;;;;;;5008083;28;21029;-73
2023/03/20 02:05:15;;;;;;;9.87;6.90;;;8.80;99.90;;;;;;5012574;28;20475;-73
2023/03/20 02:07:46;;;;;;;8.30;6.60;;;8.80;99.90;;;;;;5012405;28;20451;-73
2023/03/20 02:10:17;;;;;;;7.33;6.60;;;8.80;99.90;;;;;;5012641;28;21002;-73
2023/03/20 02:12:45;;;;;;;8.43;7.30;;;8.80;99.90;;;;;;5012137;28;20461;-73
2023/03/20 02:15:14;;;;;;;14.23;6.67;;;8.80;99.90;;;;;;5012412;28;20566;-73
2023/03/20 02:17:41;;;;;;;8.90;7.33;;;8.80;99.90;;;;;;5012633;28;20456;-73
2023/03/20 02:20:16;;;;;;;10.30;6.60;;;8.70;99.90;;;;;;5013683;28;20459;-73
2023/03/20 02:23:07;;;;;;;11.97;6.80;;;8.70;99.90;;;;;;5012068;28;20528;-73
2023/03/20 02:26:08;;;;;;;12.83;7.53;;;8.70;99.90;;;;;;5012278;28;20467;-73
2023/03/20 02:29:17;;;;;;;7.50;6.80;;;8.80;99.90;;;;;;5012194;28;20468;-73
2023/03/20 02:32:14;;;;;;;9.93;7.00;;;8.80;99.90;;;;;;5011788;28;20459;-73
2023/03/20 02:35:04;;;;;;;9.60;6.77;;;8.80;99.90;;;;;;5011985;28;20499;-73
2023/03/20 02:38:03;;;;;;;22.80;12.37;;;8.80;99.90;;;;;;5012018;28;20970;-73
2023/03/20 02:40:38;;;;;;;34.17;16.80;;;8.80;99.90;;;;;;4942577;28;20511;-73
2023/03/20 02:43:12;;;;;;;37.60;19.20;;;8.90;99.90;;;;;;5012027;28;20469;-73
2023/03/20 02:45:48;;;;;;;36.17;20.00;;;9.00;99.90;;;;;;5011816;28;20520;-73
2023/03/20 02:48:23;;;;;;;39.27;20.43;;;9.10;99.90;;;;;;5011798;28;21005;-73
2023/03/20 02:50:55;;;;;;;39.67;20.93;;;9.20;99.90;;;;;;5011067;28;20455;-73
2023/03/20 02:53:36;;;;;;;41.47;21.37;;;9.30;99.90;;;;;;5018721;28;20506;-73
2023/03/20 02:56:11;;;;;;;39.20;20.70;;;9.30;99.90;;;;;;5011051;28;20848;-73
2023/03/20 02:58:46;;;;;;;39.30;20.70;;;9.30;99.90;;;;;;5012069;28;20545;-73
2023/03/20 03:01:17;;;;;;;41.33;20.60;;;9.30;99.90;;;;;;5010325;28;20446;-73
2023/03/20 03:03:49;;;;;;;33.37;19.40;;;9.40;99.90;;;;;;5007973;28;20480;-73
2023/03/20 03:06:22;;;;;;;34.30;19.67;;;9.40;99.90;;;;;;5011722;28;20865;-73
2023/03/20 03:08:55;;;;;;;35.80;19.93;;;9.40;99.90;;;;;;5011272;28;20459;-73
2023/03/20 03:11:21;;;;;;;39.53;21.03;;;9.40;99.90;;;;;;5008325;28;20828;-73
2023/03/20 03:13:52;;;;;;;36.83;21.00;;;9.40;99.90;;;;;;5011199;28;20901;-72
2023/03/20 03:16:22;;;;;;;34.83;20.50;;;9.40;99.90;;;;;;5012070;28;20465;-74
2023/03/20 03:18:53;;;;;;;40.13;22.60;;;9.40;99.90;;;;;;5011129;28;20467;-74
2023/03/20 03:21:22;;;;;;;49.93;25.30;;;9.40;99.90;;;;;;5011756;28;20534;-73
2023/03/20 03:23:52;;;;;;;55.57;25.60;;;9.40;99.90;;;;;;5010949;28;20490;-72
2023/03/20 03:26:24;;;;;;;50.20;24.73;;;9.40;99.90;;;;;;5011038;28;21102;-73
2023/03/20 03:28:54;;;;;;;56.60;28.73;;;9.50;99.90;;;;;;5011051;28;20622;-73
2023/03/20 03:31:21;;;;;;;63.33;26.20;;;9.50;99.90;;;;;;5010961;28;20447;-72
2023/03/20 03:33:51;;;;;;;47.10;22.70;;;9.50;99.90;;;;;;5010403;28;20471;-73
2023/03/20 03:36:28;;;;;;;54.93;26.33;;;9.50;99.90;;;;;;5011152;28;20539;-74
2023/03/20 03:39:01;;;;;;;59.63;28.47;;;9.60;99.90;;;;;;5009559;28;20451;-73
2023/03/20 03:41:32;;;;;;;58.07;26.90;;;9.60;99.90;;;;;;5011215;28;20534;-73
2023/03/20 03:44:07;;;;;;;59.30;28.03;;;9.60;99.90;;;;;;5010960;28;20480;-73
2023/03/20 03:46:40;;;;;;;65.10;29.50;;;9.70;99.90;;;;;;5011657;28;20450;-74
2023/03/20 03:49:10;;;;;;;68.43;30.80;;;9.70;99.90;;;;;;5011262;28;20451;-74
2023/03/20 03:51:41;;;;;;;70.93;31.27;;;9.70;99.90;;;;;;5011392;28;20459;-74
2023/03/20 03:54:13;;;;;;;74.20;30.80;;;9.70;99.90;;;;;;5017695;28;20533;-74
2023/03/20 03:56:44;;;;;;;75.83;33.43;;;9.70;99.90;;;;;;5011528;28;20451;-74
2023/03/20 03:59:14;;;;;;;78.93;32.60;;;9.80;99.90;;;;;;5003327;28;20896;-74
2023/03/20 04:01:43;;;;;;;85.40;32.73;;;9.80;99.90;;;;;;5007476;28;20457;-74
2023/03/20 04:04:12;;;;;;;85.03;31.40;;;9.80;99.90;;;;;;5007128;28;20481;-74
2023/03/20 04:06:39;;;;;;;82.93;32.27;;;9.80;99.90;;;;;;5014986;28;20454;-74
2023/03/20 04:09:06;;;;;;;76.20;32.17;;;9.80;99.90;;;;;;5014976;28;20531;-74
2023/03/20 04:11:34;;;;;;;79.23;33.77;;;9.80;99.90;;;;;;5014525;28;20470;-74
2023/03/20 04:14:01;;;;;;;90.80;33.80;;;9.70;99.90;;;;;;5014552;28;20474;-74
2023/03/20 04:16:27;;;;;;;87.93;32.27;;;9.70;99.90;;;;;;5014952;28;20489;-74
2023/03/20 04:18:55;;;;;;;92.83;33.37;;;9.70;99.90;;;;;;5014711;28;20463;-74
2023/03/20 04:21:22;;;;;;;76.80;30.93;;;9.60;99.90;;;;;;5016840;28;20455;-74
2023/03/20 04:23:49;;;;;;;88.17;33.63;;;9.60;99.90;;;;;;5014507;28;21029;-73
2023/03/20 04:26:15;;;;;;;86.53;32.20;;;9.60;99.90;;;;;;5014160;28;20516;-74
2023/03/20 04:28:43;;;;;;;89.80;32.00;;;9.60;99.90;;;;;;5014767;28;20463;-74
2023/03/20 04:31:11;;;;;;;80.00;31.13;;;9.60;99.90;;;;;;5013801;28;20463;-74
2023/03/20 04:33:38;;;;;;;91.23;31.37;;;9.60;99.90;;;;;;5014504;28;20521;-74
2023/03/20 04:36:06;;;;;;;77.27;29.37;;;9.50;99.90;;;;;;5014128;28;20517;-74
2023/03/20 04:38:32;;;;;;;83.40;31.77;;;9.60;99.90;;;;;;5014713;28;20454;-74
2023/03/20 04:40:59;;;;;;;74.30;30.20;;;9.60;99.90;;;;;;5014156;28;20544;-74
2023/03/20 04:43:25;;;;;;;83.87;32.70;;;9.60;99.90;;;;;;5014675;28;20447;-73
2023/03/20 04:45:54;;;;;;;91.13;34.47;;;9.60;99.90;;;;;;5013670;28;20498;-74
2023/03/20 04:48:20;;;;;;;84.93;32.73;;;9.60;99.90;;;;;;5013828;28;20951;-74
2023/03/20 04:50:49;;;;;;;93.10;33.70;;;9.60;99.90;;;;;;5014089;28;20513;-74
2023/03/20 04:53:16;;;;;;;97.67;34.60;;;9.60;99.90;;;;;;5022423;28;20459;-74
2023/03/20 04:55:44;;;;;;;99.03;35.00;;;9.50;99.90;;;;;;5013318;28;20496;-74
2023/03/20 04:58:11;;;;;;;85.97;32.30;;;9.50;99.90;;;;;;5013972;28;20972;-74
2023/03/20 05:00:37;;;;;;;84.53;32.60;;;9.50;99.90;;;;;;5013752;28;20509;-74
2023/03/20 05:03:05;;;;;;;82.90;31.40;;;9.50;99.90;;;;;;5008463;28;20459;-74
2023/03/20 05:05:33;;;;;;;82.40;31.43;;;9.50;99.90;;;;;;5013400;28;20568;-74
2023/03/20 05:07:59;;;;;;;85.67;32.30;;;9.50;99.90;;;;;;5013875;28;20469;-74
2023/03/20 05:10:26;;;;;;;81.90;31.10;;;9.40;99.90;;;;;;5013420;28;20514;-74
2023/03/20 05:12:52;;;;;;;75.60;28.73;;;9.40;99.90;;;;;;5013123;28;20939;-74
2023/03/20 05:15:20;;;;;;;65.13;28.10;;;9.40;99.90;;;;;;5013761;28;20549;-74
2023/03/20 05:17:47;;;;;;;66.80;25.70;;;9.40;99.90;;;;;;5013973;28;20505;-74
2023/03/20 05:20:15;;;;;;;58.60;25.13;;;9.40;99.90;;;;;;5016341;28;20534;-74
2023/03/20 05:22:42;;;;;;;63.93;25.77;;;9.30;99.90;;;;;;5013513;28;20465;-74
2023/03/20 05:25:09;;;;;;;64.20;26.73;;;9.30;99.90;;;;;;5013907;28;20979;-74
2023/03/20 05:27:36;;;;;;;69.17;27.27;;;9.30;99.90;;;;;;5013402;28;20497;-74
2023/03/20 05:30:03;;;;;;;72.90;27.67;;;9.30;99.90;;;;;;5013551;28;20450;-74
2023/03/20 05:32:29;;;;;;;68.63;27.70;;;9.20;99.90;;;;;;5013025;28;20466;-74
2023/03/20 05:34:56;;;;;;;55.27;25.90;;;9.20;99.90;;;;;;5013133;28;20539;-74
2023/03/20 05:37:24;;;;;;;60.03;26.40;;;9.20;99.90;;;;;;5013248;28;20463;-76
2023/03/20 05:39:51;;;;;;;59.87;26.00;;;9.10;99.90;;;;;;5013186;28;20463;-76
2023/03/20 05:42:17;;;;;;;62.37;26.13;;;9.20;99.90;;;;;;5012723;28;20460;-76
2023/03/20 05:44:44;;;;;;;62.00;25.43;;;9.20;99.90;;;;;;5013238;28;21051;-76
2023/03/20 05:47:11;;;;;;;53.07;23.83;;;9.10;99.90;;;;;;5013081;28;20455;-76
2023/03/20 05:49:37;;;;;;;57.07;24.83;;;9.10;99.90;;;;;;5013028;28;20457;-76
2023/03/20 05:52:04;;;;;;;57.40;25.23;;;9.10;99.90;;;;;;5012294;28;20947;-76
2023/03/20 05:54:32;;;;;;;54.30;24.30;;;9.10;99.90;;;;;;5012133;28;20995;-79
2023/03/20 05:56:58;;;;;;;56.03;24.10;;;9.10;99.90;;;;;;5012752;28;20467;-79
2023/03/20 05:59:25;;;;;;;52.47;24.80;;;9.10;99.90;;;;;;5013143;28;20462;-78
2023/03/20 06:01:52;;;;;;;57.47;25.07;;;9.10;99.90;;;;;;5011046;28;20463;-79
2023/03/20 06:04:18;;;;;;;59.33;24.90;;;9.10;99.90;;;;;;5012698;28;20475;-78
2023/03/20 06:06:45;;;;;;;50.63;23.47;;;9.10;99.90;;;;;;5011799;28;20516;-78
2023/03/20 06:09:12;;;;;;;60.27;26.07;;;9.10;99.90;;;;;;5011681;28;20513;-80
2023/03/20 06:11:39;;;;;;;55.40;25.30;;;9.10;99.90;;;;;;5012324;28;20878;-80
2023/03/20 06:14:06;;;;;;;65.20;27.77;;;9.10;99.90;;;;;;5012663;28;20477;-79
2023/03/20 06:16:33;;;;;;;61.70;26.27;;;9.10;99.90;;;;;;5012811;28;20905;-79
2023/03/20 06:19:00;;;;;;;62.80;27.00;;;9.20;99.90;;;;;;5015433;28;20838;-79
2023/03/20 06:21:26;;;;;;;60.47;26.10;;;9.10;99.90;;;;;;5015546;28;20463;-79
2023/03/20 06:23:53;;;;;;;59.57;27.33;;;9.10;99.90;;;;;;5011991;28;20522;-80
2023/03/20 06:26:20;;;;;;;62.97;27.60;;;9.10;99.90;;;;;;5012242;28;20545;-79
2023/03/20 06:28:48;;;;;;;57.50;25.10;;;9.10;99.90;;;;;;5011293;28;20478;-79
2023/03/20 06:31:15;;;;;;;64.30;25.93;;;9.10;99.90;;;;;;5011309;28;20470;-79
2023/03/20 06:33:41;;;;;;;52.80;25.70;;;9.10;99.90;;;;;;5012078;28;20543;-79
2023/03/20 06:36:09;;;;;;;56.60;25.30;;;9.10;99.90;;;;;;5012774;28;20495;-79
2023/03/20 06:38:35;;;;;;;58.70;26.20;;;9.20;99.90;;;;;;5013079;28;20455;-79
2023/03/20 06:41:02;;;;;;;54.40;24.83;;;9.20;99.90;;;;;;5012733;28;20454;-79
2023/03/20 06:43:29;;;;;;;57.50;25.47;;;9.20;99.90;;;;;;5013034;28;20516;-79
2023/03/20 06:45:57;;;;;;;52.40;24.87;;;9.30;99.90;;;;;;5011862;28;20474;-79
2023/03/20 06:48:23;;;;;;;48.87;23.27;;;9.30;99.90;;;;;;5011353;28;20569;-70
2023/03/20 06:50:51;;;;;;;52.37;24.63;;;9.30;99.90;;;;;;5012095;28;20470;-70
2023/03/20 06:53:19;;;;;;;49.23;22.90;;;9.50;99.90;;;;;;5012094;28;20460;-70
2023/03/20 06:55:47;;;;;;;54.13;25.27;;;9.70;99.90;;;;;;5011662;28;20487;-70
2023/03/20 06:58:14;;;;;;;45.30;20.90;;;9.80;99.90;;;;;;5011516;28;20927;-70
2023/03/20 07:00:41;;;;;;;49.63;24.67;;;9.90;99.90;;;;;;5011817;28;20549;-70
2023/03/20 07:03:10;;;;;;;52.95;25.13;;;10.20;99.90;;;;;;5007119;28;20969;-77
2023/03/20 07:05:39;;;;;;;47.47;22.63;;;10.20;99.90;;;;;;5011358;28;21046;-77
2023/03/20 07:08:06;;;;;;;45.30;22.63;;;10.10;99.90;;;;;;5011899;28;20975;-78
2023/03/20 07:10:33;;;;;;;46.63;24.50;;;10.10;99.90;;;;;;5011575;28;20462;-77
2023/03/20 07:13:00;;;;;;;41.77;23.27;;;10.00;99.90;;;;;;5010381;28;20452;-77
2023/03/20 07:15:28;;;;;;;46.10;23.57;;;10.00;99.90;;;;;;5011432;28;20526;-77
2023/03/20 07:17:55;;;;;;;52.57;24.00;;;10.00;99.90;;;;;;5016453;28;20504;-77
2023/03/20 07:20:23;;;;;;;43.77;22.40;;;10.00;99.90;;;;;;5015130;28;21165;-77
2023/03/20 07:22:50;;;;;;;37.33;20.57;;;10.00;99.90;;;;;;5011449;28;20533;-77
2023/03/20 07:25:17;;;;;;;40.07;21.40;;;10.00;99.90;;;;;;5011102;28;20464;-76
2023/03/20 07:27:49;;;;;;;45.77;21.53;;;10.00;99.90;;;;;;5011068;28;20471;-77
2023/03/20 07:30:16;;;;;;;41.13;21.50;;;10.00;99.90;;;;;;5011509;28;20493;-76
2023/03/20 07:32:43;;;;;;;40.27;21.13;;;10.00;99.90;;;;;;5010793;28;20456;-76
2023/03/20 07:35:09;;;;;;;40.20;21.67;;;9.90;99.90;;;;;;5011218;28;20494;-76
2023/03/20 07:37:37;;;;;;;44.53;23.00;;;9.90;99.90;;;;;;5017901;28;21004;-77
2023/03/20 07:40:05;;;;;;;44.70;23.03;;;9.80;99.90;;;;;;5017626;28;20517;-76
2023/03/20 07:42:32;;;;;;;48.20;22.83;;;9.80;99.90;;;;;;5019309;28;20995;-77
2023/03/20 07:44:59;;;;;;;44.37;22.33;;;9.80;99.90;;;;;;5017493;28;20475;-77
2023/03/20 07:47:25;;;;;;;40.90;21.03;;;9.70;99.90;;;;;;5017749;28;20520;-77
2023/03/20 07:49:52;;;;;;;42.30;22.53;;;9.70;99.90;;;;;;5017800;28;20491;-77
2023/03/20 07:52:18;;;;;;;47.07;22.47;;;9.60;99.90;;;;;;5018355;28;20447;-76
2023/03/20 07:54:46;;;;;;;43.83;21.50;;;9.60;99.90;;;;;;5016630;28;20532;-75
2023/03/20 07:57:13;;;;;;;44.40;23.00;;;9.70;99.90;;;;;;5016787;28;20866;-75
2023/03/20 07:59:40;;;;;;;44.00;22.63;;;9.70;99.90;;;;;;5017096;28;20516;-75
2023/03/20 08:02:06;;;;;;;41.20;22.67;;;9.80;99.90;;;;;;5010226;28;20510;-75
2023/03/20 08:04:33;;;;;;;44.47;21.97;;;9.90;99.90;;;;;;5016486;28;20913;-75
2023/03/20 08:07:00;;;;;;;46.60;23.53;;;10.00;99.90;;;;;;5016872;28;20955;-76
2023/03/20 08:09:26;;;;;;;52.20;24.70;;;10.10;99.90;;;;;;5017007;28;20451;-75
2023/03/20 08:11:54;;;;;;;60.83;25.97;;;10.20;99.90;;;;;;5016598;28;20959;-75
2023/03/20 08:14:21;;;;;;;54.77;26.57;;;10.30;99.90;;;;;;5008875;28;20477;-76
2023/03/20 08:16:48;;;;;;;65.00;28.73;;;10.30;99.90;;;;;;5016378;28;20484;-76
2023/03/20 08:19:14;;;;;;;54.83;26.63;;;10.40;99.90;;;;;;5021658;28;20455;-75
2023/03/20 08:21:41;;;;;;;56.07;26.67;;;10.40;99.90;;;;;;5020486;28;20978;-75
2023/03/20 08:24:08;;;;;;;55.23;25.60;;;10.40;99.90;;;;;;5016526;28;21202;-74
2023/03/20 08:26:35;;;;;;;54.50;24.97;;;10.40;99.90;;;;;;5017096;28;20462;-74
2023/03/20 08:29:04;;;;;;;51.77;27.53;;;10.30;99.90;;;;;;5016153;28;20981;-74
2023/03/20 08:31:31;;;;;;;54.53;25.70;;;10.30;99.90;;;;;;5016702;28;20454;-74
2023/03/20 08:33:58;;;;;;;47.30;23.13;;;10.40;99.90;;;;;;5015852;28;21020;-74
2023/03/20 08:36:24;;;;;;;45.13;22.53;;;10.50;99.90;;;;;;5016862;28;20488;-74
2023/03/20 08:38:51;;;;;;;41.17;22.30;;;10.60;99.90;;;;;;5016782;28;20455;-74
2023/03/20 08:41:18;;;;;;;44.17;23.30;;;10.70;99.90;;;;;;5016561;28;20524;-74
2023/03/20 08:43:46;;;;;;;40.63;21.63;;;10.70;99.90;;;;;;5016589;28;20535;-74
2023/03/20 08:46:14;;;;;;;35.73;19.60;;;10.70;99.90;;;;;;5015182;28;20479;-74
2023/03/20 08:48:41;;;;;;;42.07;22.27;;;10.80;99.90;;;;;;5012900;28;20534;-73
2023/03/20 08:51:08;;;;;;;44.77;22.87;;;10.90;99.90;;;;;;5013611;28;20461;-74
2023/03/20 08:53:35;;;;;;;39.60;21.33;;;10.90;99.90;;;;;;5014699;28;20494;-74
2023/03/20 08:56:02;;;;;;;35.20;20.40;;;11.00;99.90;;;;;;5012837;28;21074;-75
2023/03/20 08:58:28;;;;;;;37.87;19.70;;;11.10;99.90;;;;;;5012254;28;20954;-75
2023/03/20 09:00:55;;;;;;;28.70;16.90;;;11.30;99.90;;;;;;5013319;28;20452;-75
2023/03/20 09:03:24;;;;;;;29.03;16.23;;;11.50;99.90;;;;;;5006170;28;20452;-75
2023/03/20 09:05:52;;;;;;;27.80;17.20;;;11.50;99.90;;;;;;5012133;28;20508;-75
2023/03/20 09:08:18;;;;;;;27.93;15.17;;;11.60;99.90;;;;;;5013085;28;20453;-75
2023/03/20 09:10:47;;;;;;;26.50;15.20;;;11.90;99.90;;;;;;5012968;28;20463;-75
2023/03/20 09:13:13;;;;;;;28.53;15.70;;;12.40;99.90;;;;;;5013058;28;20455;-76
2023/03/20 09:15:40;;;;;;;24.90;15.30;;;13.00;99.90;;;;;;5011736;28;20487;-76
2023/03/20 09:18:07;;;;;;;22.53;14.30;;;13.60;99.90;;;;;;5018108;28;20454;-76
2023/03/20 09:20:35;;;;;;;24.50;15.27;;;14.00;99.90;;;;;;5016566;28;20463;-77
2023/03/20 09:23:01;;;;;;;20.67;13.97;;;14.30;99.90;;;;;;5013113;28;20542;-76
2023/03/20 09:25:28;;;;;;;20.73;13.57;;;14.30;99.90;;;;;;5012288;28;20971;-76
2023/03/20 09:27:55;;;;;;;20.23;12.27;;;13.90;99.90;;;;;;5012886;28;20472;-76
2023/03/20 09:30:22;;;;;;;21.97;12.47;;;13.30;99.90;;;;;;5011658;28;20521;-75
2023/03/20 09:32:49;;;;;;;22.20;13.60;;;13.00;99.90;;;;;;5012854;28;20513;-75
2023/03/20 09:35:16;;;;;;;21.13;11.77;;;12.90;99.90;;;;;;5012368;28;20471;-75
2023/03/20 09:37:44;;;;;;;18.43;11.40;;;12.80;99.90;;;;;;5012341;28;20549;-75
2023/03/20 09:40:23;;;;;;;20.80;11.67;;;12.80;99.90;;;;;;5012124;28;20517;-74
2023/03/20 09:42:55;;;;;;;17.00;11.53;;;12.70;99.90;;;;;;5012268;28;20505;-74
2023/03/20 09:45:33;;;;;;;22.50;12.43;;;12.90;99.90;;;;;;5011334;28;20999;-74
2023/03/20 09:48:05;;;;;;;20.77;12.20;;;13.00;99.90;;;;;;5012629;28;20463;-74
2023/03/20 09:50:36;;;;;;;19.20;10.63;;;13.00;99.90;;;;;;5011448;28;20984;-75
2023/03/20 09:53:09;;;;;;;18.90;11.60;;;13.20;99.90;;;;;;5013674;28;20931;-75
2023/03/20 09:55:37;;;;;;;20.87;10.33;;;13.20;99.90;;;;;;5011282;28;20471;-75
2023/03/20 09:58:12;;;;;;;17.50;9.80;;;13.50;99.90;;;;;;5011283;28;20967;-75
2023/03/20 10:00:42;;;;;;;19.57;9.90;;;13.90;99.90;;;;;;5011155;28;20455;-75
2023/03/20 10:03:17;;;;;;;18.77;10.23;;;14.20;99.90;;;;;;5004846;28;20455;-76
2023/03/20 10:05:48;;;;;;;21.23;11.50;;;14.20;99.90;;;;;;5011961;28;20474;-75
2023/03/20 10:08:20;;;;;;;18.87;10.77;;;14.30;99.90;;;;;;5012036;28;20450;-75
2023/03/20 10:10:52;;;;;;;16.20;9.97;;;14.00;99.90;;;;;;5011823;28;20443;-75
2023/03/20 10:13:39;;;;;;;18.83;9.77;;;13.80;99.90;;;;;;5011813;28;20463;-75
2023/03/20 10:16:17;;;;;;;18.87;9.70;;;13.20;99.90;;;;;;5011866;28;20540;-74
2023/03/20 10:18:49;;;;;;;16.90;10.27;;;13.10;99.90;;;;;;5017994;28;20455;-75
2023/03/20 10:21:19;;;;;;;17.10;10.50;;;12.90;99.90;;;;;;5010765;28;20991;-76
2023/03/20 10:23:59;;;;;;;15.83;9.90;;;13.00;99.90;;;;;;5011955;28;20529;-74
2023/03/20 10:26:28;;;;;;;16.87;10.03;;;13.00;99.90;;;;;;5011032;28;20951;-74
2023/03/20 10:28:58;;;;;;;16.50;10.57;;;13.00;99.90;;;;;;5011699;28;20542;-74
2023/03/20 10:31:42;;;;;;;16.60;9.93;;;13.00;99.90;;;;;;5011368;28;20497;-75
2023/03/20 10:34:27;;;;;;;18.00;10.30;;;13.00;99.90;;;;;;5011639;28;20884;-75
2023/03/20 10:37:12;;;;;;;16.10;9.93;;;13.20;99.90;;;;;;5011192;28;20491;-75
2023/03/20 10:39:51;;;;;;;17.60;9.20;;;13.30;99.90;;;;;;5004845;28;20524;-76
2023/03/20 10:42:23;;;;;;;16.00;9.70;;;13.10;99.90;;;;;;5011651;28;20455;-75
2023/03/20 10:44:55;;;;;;;17.10;9.77;;;13.10;99.90;;;;;;5011765;28;20582;-75
2023/03/20 10:47:24;;;;;;;16.43;10.13;;;13.00;99.90;;;;;;5012184;28;20451;-75
2023/03/20 10:49:54;;;;;;;18.20;9.80;;;12.90;99.90;;;;;;5011159;28;20561;-75
2023/03/20 10:52:27;;;;;;;18.17;10.50;;;12.80;99.90;;;;;;5013583;28;20500;-75
2023/03/20 10:54:58;;;;;;;18.10;10.63;;;12.50;99.90;;;;;;5010726;28;20478;-75
2023/03/20 10:57:27;;;;;;;17.83;10.20;;;12.40;99.90;;;;;;5011550;28;20537;-75
2023/03/20 10:59:56;;;;;;;21.40;10.90;;;12.40;99.90;;;;;;5010779;28;20940;-76
2023/03/20 11:02:27;;;;;;;20.27;10.97;;;12.30;99.90;;;;;;5003752;28;20460;-75
2023/03/20 11:04:54;;;;;;;17.80;10.97;;;12.40;99.90;;;;;;5010974;28;20913;-76
2023/03/20 11:07:25;;;;;;;19.93;10.77;;;12.50;99.90;;;;;;5011779;28;20541;-76
2023/03/20 11:10:11;;;;;;;17.20;11.37;;;12.60;99.90;;;;;;5011175;28;20529;-76
2023/03/20 11:12:39;;;;;;;18.30;10.40;;;12.60;99.90;;;;;;5011725;28;20482;-76
2023/03/20 11:15:25;;;;;;;16.30;10.00;;;12.60;99.90;;;;;;5010869;28;20483;-76
2023/03/20 11:17:53;;;;;;;17.30;10.60;;;12.60;99.90;;;;;;5016271;28;20489;-76
2023/03/20 11:20:20;;;;;;;15.73;9.33;;;12.60;99.90;;;;;;5017691;28;20446;-75
2023/03/20 11:22:48;;;;;;;17.50;9.50;;;12.60;99.90;;;;;;5011757;28;20795;-73
2023/03/20 11:25:29;;;;;;;14.60;9.00;;;12.70;99.90;;;;;;5011542;28;20478;-73
2023/03/20 11:27:57;;;;;;;18.33;9.90;;;13.10;99.90;;;;;;5011329;28;20463;-74
2023/03/20 11:30:24;;;;;;;14.03;8.30;;;13.30;99.90;;;;;;5010553;28;20513;-74
2023/03/20 11:32:55;;;;;;;16.60;9.07;;;13.40;99.90;;;;;;5011550;28;20513;-74
2023/03/20 11:35:29;;;;;;;17.70;9.27;;;13.60;99.90;;;;;;5011122;28;20475;-75
2023/03/20 11:38:08;;;;;;;12.80;7.93;;;13.90;99.90;;;;;;5010659;28;20522;-74
2023/03/20 11:40:38;;;;;;;12.03;7.50;;;14.30;99.90;;;;;;5003944;28;20955;-75
2023/03/20 11:43:11;;;;;;;9.13;6.83;;;14.50;99.90;;;;;;5011255;28;20517;-75
2023/03/20 11:45:40;;;;;;;11.33;7.63;;;14.50;99.90;;;;;;5003870;28;20517;-75
2023/03/20 11:48:14;;;;;;;9.33;6.87;;;14.80;99.90;;;;;;5011207;28;20447;-75
2023/03/20 11:50:44;;;;;;;11.23;8.00;;;15.20;99.90;;;;;;5011080;28;20493;-74
2023/03/20 11:53:22;;;;;;;10.90;7.53;;;15.40;99.90;;;;;;5013793;28;20452;-75
2023/03/20 11:56:02;;;;;;;10.83;7.40;;;15.40;99.90;;;;;;5011344;28;20537;-74
2023/03/20 11:58:29;;;;;;;11.97;7.50;;;15.30;99.90;;;;;;5010729;28;20487;-74
2023/03/20 12:00:56;;;;;;;9.80;6.77;;;15.10;99.90;;;;;;5010509;28;20463;-75
2023/03/20 12:03:54;;;;;;;9.00;6.83;;;15.40;99.90;;;;;;5010026;28;20532;-75
2023/03/20 12:06:22;;;;;;;8.27;6.20;;;15.80;99.90;;;;;;4966622;28;20547;-74
2023/03/20 12:08:53;;;;;;;8.13;5.40;;;16.00;99.90;;;;;;5011073;28;20505;-74
2023/03/20 12:11:43;;;;;;;7.33;5.80;;;15.80;99.90;;;;;;5011029;28;20443;-75
2023/03/20 12:14:18;;;;;;;8.43;6.00;;;15.90;99.90;;;;;;5010892;28;20504;-75
2023/03/20 12:16:46;;;;;;;9.00;5.23;;;15.80;99.90;;;;;;5011263;28;20472;-77
2023/03/20 12:19:17;;;;;;;5.93;4.90;;;15.80;99.90;;;;;;5017457;28;20455;-76
2023/03/20 12:21:47;;;;;;;4.27;3.87;;;15.80;99.90;;;;;;5016261;28;20918;-76
2023/03/20 12:24:21;;;;;;;10.27;6.17;;;15.60;99.90;;;;;;5013741;28;20475;-76
2023/03/20 12:26:55;;;;;;;7.60;5.63;;;15.60;99.90;;;;;;5014652;28;20525;-76
2023/03/20 12:29:28;;;;;;;9.00;5.23;;;15.70;99.90;;;;;;5014277;28;20966;-76
2023/03/20 12:32:01;;;;;;;7.57;5.43;;;15.90;99.90;;;;;;5014235;28;20441;-75
2023/03/20 12:34:34;;;;;;;10.53;5.43;;;16.30;99.90;;;;;;5013988;28;20532;-75
2023/03/20 12:37:01;;;;;;;7.33;5.10;;;16.30;99.90;;;;;;5013672;28;20486;-74
2023/03/20 12:39:33;;;;;;;6.37;4.50;;;16.40;99.90;;;;;;5013761;28;20997;-74
2023/03/20 12:42:14;;;;;;;5.00;3.93;;;16.50;99.90;;;;;;5013447;28;20437;-74
2023/03/20 12:44:46;;;;;;;5.07;4.50;;;16.30;99.90;;;;;;5013828;28;20449;-74
2023/03/20 12:47:36;;;;;;;5.90;4.03;;;15.80;99.90;;;;;;5013515;28;20493;-74
2023/03/20 12:50:10;;;;;;;6.43;3.97;;;15.70;99.90;;;;;;5013558;28;20451;-74
2023/03/20 12:52:47;;;;;;;4.27;3.87;;;15.60;99.90;;;;;;5013882;28;20437;-74